Rogers, Arkansas
Current Conditions -  °F | °C
As of 1:57 PM on Sunday 25 Jan 2015 (Local Time) from KROG Reporting Station
Overcast Overcast  
Wind Chill: 31°   Ceiling: 2600
Heat Index: 41°   Visibility: 10mi
Dew Point: 31°   Wind: 23mph
Humidity: 67%   Direction: 310°NW
Pressure: 29.84"   Gusts: 32mph
Location:  36.33°N, 94.12°W
Report Text: KROG 251957Z 31020G28KT 10SM OVC026 05/M01 A2984 RMK AO2 PK WND 32028/1957 SLP106 T00501006
Loading
Personal Weather Stations






























Interactive Weather Map New forecast layout! Learn more

10-Day Weather Forecast

Advertisements
Track Severe Weather on mobile